sensor_id;sensor_type;location;lat;lon;timestamp;temperature;humidity
17597;DHT22;8917;50.942;6.946;2023-08-31T00:01:01;16.70;99.90
17597;DHT22;8917;50.942;6.946;2023-08-31T00:03:29;16.40;99.90
17597;DHT22;8917;50.942;6.946;2023-08-31T00:05:56;16.30;99.90
17597;DHT22;8917;50.942;6.946;2023-08-31T00:08:23;16.20;99.90
17597;DHT22;8917;50.942;6.946;2023-08-31T00:10:55;16.20;99.90
17597;DHT22;8917;50.942;6.946;2023-08-31T00:13:23;16.20;99.90
17597;DHT22;8917;50.942;6.946;2023-08-31T00:15:54;16.30;99.90
17597;DHT22;8917;50.942;6.946;2023-08-31T00:18:22;16.30;99.90
17597;DHT22;8917;50.942;6.946;2023-08-31T00:20:49;16.30;99.90
17597;DHT22;8917;50.942;6.946;2023-08-31T00:23:16;16.40;99.90
17597;DHT22;8917;50.942;6.946;2023-08-31T00:25:44;16.50;99.90
17597;DHT22;8917;50.942;6.946;2023-08-31T00:28:11;16.50;99.90
17597;DHT22;8917;50.942;6.946;2023-08-31T00:30:41;16.60;99.90
17597;DHT22;8917;50.942;6.946;2023-08-31T00:33:11;16.60;99.90
17597;DHT22;8917;50.942;6.946;2023-08-31T00:35:38;16.40;99.90
17597;DHT22;8917;50.942;6.946;2023-08-31T00:38:08;16.40;99.90
17597;DHT22;8917;50.942;6.946;2023-08-31T00:40:38;16.30;99.90
17597;DHT22;8917;50.942;6.946;2023-08-31T00:43:06;16.20;99.90
17597;DHT22;8917;50.942;6.946;2023-08-31T00:45:33;16.20;99.90
17597;DHT22;8917;50.942;6.946;2023-08-31T00:48:01;16.20;99.90
17597;DHT22;8917;50.942;6.946;2023-08-31T00:50:29;16.10;99.90
17597;DHT22;8917;50.942;6.946;2023-08-31T00:52:56;16.10;99.90
17597;DHT22;8917;50.942;6.946;2023-08-31T00:55:24;16.10;99.90
17597;DHT22;8917;50.942;6.946;2023-08-31T00:57:52;16.10;99.90
17597;DHT22;8917;50.942;6.946;2023-08-31T01:00:19;16.20;99.90
17597;DHT22;8917;50.942;6.946;2023-08-31T01:02:56;16.30;99.90
17597;DHT22;8917;50.942;6.946;2023-08-31T01:05:36;16.40;99.90
17597;DHT22;8917;50.942;6.946;2023-08-31T01:08:12;16.30;99.90
17597;DHT22;8917;50.942;6.946;2023-08-31T01:10:46;16.40;99.90
17597;DHT22;8917;50.942;6.946;2023-08-31T01:13:21;16.40;99.90
17597;DHT22;8917;50.942;6.946;2023-08-31T01:15:58;16.30;99.90
17597;DHT22;8917;50.942;6.946;2023-08-31T01:18:27;16.30;99.90
17597;DHT22;8917;50.942;6.946;2023-08-31T01:21:02;16.40;99.90
17597;DHT22;8917;50.942;6.946;2023-08-31T01:23:51;16.40;99.90
17597;DHT22;8917;50.942;6.946;2023-08-31T01:26:19;16.40;99.90
17597;DHT22;8917;50.942;6.946;2023-08-31T01:28:47;16.40;99.90
17597;DHT22;8917;50.942;6.946;2023-08-31T01:31:14;16.30;99.90
17597;DHT22;8917;50.942;6.946;2023-08-31T01:33:42;16.30;99.90
17597;DHT22;8917;50.942;6.946;2023-08-31T01:36:17;16.30;99.90
17597;DHT22;8917;50.942;6.946;2023-08-31T01:38:48;16.20;99.90
17597;DHT22;8917;50.942;6.946;2023-08-31T01:41:22;16.20;99.90
17597;DHT22;8917;50.942;6.946;2023-08-31T01:43:51;16.20;99.90
17597;DHT22;8917;50.942;6.946;2023-08-31T01:46:19;16.10;99.90
17597;DHT22;8917;50.942;6.946;2023-08-31T01:48:46;16.20;99.90
17597;DHT22;8917;50.942;6.946;2023-08-31T01:51:13;16.30;99.90
17597;DHT22;8917;50.942;6.946;2023-08-31T01:53:40;16.30;99.90
17597;DHT22;8917;50.942;6.946;2023-08-31T01:56:07;16.30;99.90
17597;DHT22;8917;50.942;6.946;2023-08-31T01:58:35;16.20;99.90
17597;DHT22;8917;50.942;6.946;2023-08-31T02:01:02;16.10;99.90
17597;DHT22;8917;50.942;6.946;2023-08-31T02:03:29;16.00;99.90
17597;DHT22;8917;50.942;6.946;2023-08-31T02:05:56;15.90;99.90
17597;DHT22;8917;50.942;6.946;2023-08-31T02:08:23;15.90;99.90
17597;DHT22;8917;50.942;6.946;2023-08-31T02:10:50;15.90;99.90
17597;DHT22;8917;50.942;6.946;2023-08-31T02:13:17;15.80;99.90
17597;DHT22;8917;50.942;6.946;2023-08-31T02:15:45;15.80;99.90
17597;DHT22;8917;50.942;6.946;2023-08-31T02:18:12;15.90;99.90
17597;DHT22;8917;50.942;6.946;2023-08-31T02:20:39;16.00;99.90
17597;DHT22;8917;50.942;6.946;2023-08-31T02:23:05;16.00;99.90
17597;DHT22;8917;50.942;6.946;2023-08-31T02:25:35;16.00;99.90
17597;DHT22;8917;50.942;6.946;2023-08-31T02:28:02;16.00;99.90
17597;DHT22;8917;50.942;6.946;2023-08-31T02:30:28;16.00;99.90
17597;DHT22;8917;50.942;6.946;2023-08-31T02:32:57;16.00;99.90
17597;DHT22;8917;50.942;6.946;2023-08-31T02:35:23;16.00;99.90
17597;DHT22;8917;50.942;6.946;2023-08-31T02:37:50;16.10;99.90
17597;DHT22;8917;50.942;6.946;2023-08-31T02:40:17;16.10;99.90
17597;DHT22;8917;50.942;6.946;2023-08-31T02:42:46;16.10;99.90
17597;DHT22;8917;50.942;6.946;2023-08-31T02:45:13;16.10;99.90
17597;DHT22;8917;50.942;6.946;2023-08-31T02:47:41;16.00;99.90
17597;DHT22;8917;50.942;6.946;2023-08-31T02:50:10;16.00;99.90
17597;DHT22;8917;50.942;6.946;2023-08-31T02:52:36;16.00;99.90
17597;DHT22;8917;50.942;6.946;2023-08-31T02:55:04;15.80;99.90
17597;DHT22;8917;50.942;6.946;2023-08-31T02:57:31;15.70;99.90
17597;DHT22;8917;50.942;6.946;2023-08-31T02:59:58;15.80;99.90
17597;DHT22;8917;50.942;6.946;2023-08-31T03:02:25;15.90;99.90
17597;DHT22;8917;50.942;6.946;2023-08-31T03:04:52;15.90;99.90
17597;DHT22;8917;50.942;6.946;2023-08-31T03:07:20;15.90;99.90
17597;DHT22;8917;50.942;6.946;2023-08-31T03:09:48;15.90;99.90
17597;DHT22;8917;50.942;6.946;2023-08-31T03:12:16;15.90;99.90
17597;DHT22;8917;50.942;6.946;2023-08-31T03:14:43;16.00;99.90
17597;DHT22;8917;50.942;6.946;2023-08-31T03:17:10;15.90;99.90
17597;DHT22;8917;50.942;6.946;2023-08-31T03:19:37;15.90;99.90
17597;DHT22;8917;50.942;6.946;2023-08-31T03:22:04;15.80;99.90
17597;DHT22;8917;50.942;6.946;2023-08-31T03:24:33;15.80;99.90
17597;DHT22;8917;50.942;6.946;2023-08-31T03:27:00;15.80;99.90
17597;DHT22;8917;50.942;6.946;2023-08-31T03:29:26;15.70;99.90
17597;DHT22;8917;50.942;6.946;2023-08-31T03:31:56;15.70;99.90
17597;DHT22;8917;50.942;6.946;2023-08-31T03:34:23;15.60;99.90
17597;DHT22;8917;50.942;6.946;2023-08-31T03:36:50;15.70;99.90
17597;DHT22;8917;50.942;6.946;2023-08-31T03:39:17;15.80;99.90
17597;DHT22;8917;50.942;6.946;2023-08-31T03:41:45;15.80;99.90
17597;DHT22;8917;50.942;6.946;2023-08-31T03:44:12;15.90;99.90
17597;DHT22;8917;50.942;6.946;2023-08-31T03:46:42;16.00;99.90
17597;DHT22;8917;50.942;6.946;2023-08-31T03:49:09;16.10;99.90
17597;DHT22;8917;50.942;6.946;2023-08-31T03:51:36;15.90;99.90
17597;DHT22;8917;50.942;6.946;2023-08-31T03:54:03;15.80;99.90
17597;DHT22;8917;50.942;6.946;2023-08-31T03:56:30;15.80;99.90
17597;DHT22;8917;50.942;6.946;2023-08-31T03:58:58;16.00;99.90
17597;DHT22;8917;50.942;6.946;2023-08-31T04:01:25;15.90;99.90
17597;DHT22;8917;50.942;6.946;2023-08-31T04:03:52;15.90;99.90
17597;DHT22;8917;50.942;6.946;2023-08-31T04:06:19;15.70;99.90
17597;DHT22;8917;50.942;6.946;2023-08-31T04:08:46;15.80;99.90
17597;DHT22;8917;50.942;6.946;2023-08-31T04:11:13;15.70;99.90
17597;DHT22;8917;50.942;6.946;2023-08-31T04:13:40;15.70;99.90
17597;DHT22;8917;50.942;6.946;2023-08-31T04:16:08;15.80;99.90
17597;DHT22;8917;50.942;6.946;2023-08-31T04:18:35;15.80;99.90
17597;DHT22;8917;50.942;6.946;2023-08-31T04:21:02;15.70;99.90
17597;DHT22;8917;50.942;6.946;2023-08-31T04:23:29;15.70;99.90
17597;DHT22;8917;50.942;6.946;2023-08-31T04:25:56;15.70;99.90
17597;DHT22;8917;50.942;6.946;2023-08-31T04:28:25;15.70;99.90
17597;DHT22;8917;50.942;6.946;2023-08-31T04:30:52;15.80;99.90
17597;DHT22;8917;50.942;6.946;2023-08-31T04:33:20;15.90;99.90
17597;DHT22;8917;50.942;6.946;2023-08-31T04:35:47;15.90;99.90
17597;DHT22;8917;50.942;6.946;2023-08-31T04:38:15;16.00;99.90
17597;DHT22;8917;50.942;6.946;2023-08-31T04:40:42;15.90;99.90
17597;DHT22;8917;50.942;6.946;2023-08-31T04:43:10;15.90;99.90
17597;DHT22;8917;50.942;6.946;2023-08-31T04:45:37;15.80;99.90
17597;DHT22;8917;50.942;6.946;2023-08-31T04:48:04;15.70;99.90
17597;DHT22;8917;50.942;6.946;2023-08-31T04:50:33;15.70;99.90
17597;DHT22;8917;50.942;6.946;2023-08-31T04:53:00;15.60;99.90
17597;DHT22;8917;50.942;6.946;2023-08-31T04:55:25;15.50;99.90
17597;DHT22;8917;50.942;6.946;2023-08-31T04:57:52;15.60;99.90
17597;DHT22;8917;50.942;6.946;2023-08-31T05:00:19;15.60;99.90
17597;DHT22;8917;50.942;6.946;2023-08-31T05:02:46;15.70;99.90
17597;DHT22;8917;50.942;6.946;2023-08-31T05:05:13;15.70;99.90
17597;DHT22;8917;50.942;6.946;2023-08-31T05:07:42;15.60;99.90
17597;DHT22;8917;50.942;6.946;2023-08-31T05:10:09;15.60;99.90
17597;DHT22;8917;50.942;6.946;2023-08-31T05:12:37;15.60;99.90
17597;DHT22;8917;50.942;6.946;2023-08-31T05:15:04;15.70;99.90
17597;DHT22;8917;50.942;6.946;2023-08-31T05:17:31;15.70;99.90
17597;DHT22;8917;50.942;6.946;2023-08-31T05:19:59;15.50;99.90
17597;DHT22;8917;50.942;6.946;2023-08-31T05:22:26;15.60;99.90
17597;DHT22;8917;50.942;6.946;2023-08-31T05:24:55;15.60;99.90
17597;DHT22;8917;50.942;6.946;2023-08-31T05:27:21;15.60;99.90
17597;DHT22;8917;50.942;6.946;2023-08-31T05:29:48;15.70;99.90
17597;DHT22;8917;50.942;6.946;2023-08-31T05:32:16;15.80;99.90
17597;DHT22;8917;50.942;6.946;2023-08-31T05:34:43;15.60;99.90
17597;DHT22;8917;50.942;6.946;2023-08-31T05:37:09;15.40;99.90
17597;DHT22;8917;50.942;6.946;2023-08-31T05:39:37;15.50;99.90
17597;DHT22;8917;50.942;6.946;2023-08-31T05:42:06;15.60;99.90
17597;DHT22;8917;50.942;6.946;2023-08-31T05:44:33;15.60;99.90
17597;DHT22;8917;50.942;6.946;2023-08-31T05:46:59;15.60;99.90
17597;DHT22;8917;50.942;6.946;2023-08-31T05:49:26;15.70;99.90
17597;DHT22;8917;50.942;6.946;2023-08-31T05:51:53;15.80;99.90
17597;DHT22;8917;50.942;6.946;2023-08-31T05:54:20;15.90;99.90
17597;DHT22;8917;50.942;6.946;2023-08-31T05:56:47;15.70;99.90
17597;DHT22;8917;50.942;6.946;2023-08-31T05:59:15;15.60;99.90
17597;DHT22;8917;50.942;6.946;2023-08-31T06:01:43;15.60;99.90
17597;DHT22;8917;50.942;6.946;2023-08-31T06:04:10;15.60;99.90
17597;DHT22;8917;50.942;6.946;2023-08-31T06:06:37;15.70;99.90
17597;DHT22;8917;50.942;6.946;2023-08-31T06:09:04;15.80;99.90
17597;DHT22;8917;50.942;6.946;2023-08-31T06:11:32;15.70;99.90
17597;DHT22;8917;50.942;6.946;2023-08-31T06:13:59;15.70;99.90
17597;DHT22;8917;50.942;6.946;2023-08-31T06:16:27;15.80;99.90
17597;DHT22;8917;50.942;6.946;2023-08-31T06:18:54;15.60;99.90
17597;DHT22;8917;50.942;6.946;2023-08-31T06:21:21;15.60;99.90
17597;DHT22;8917;50.942;6.946;2023-08-31T06:23:48;15.60;99.90
17597;DHT22;8917;50.942;6.946;2023-08-31T06:26:15;15.50;99.90
17597;DHT22;8917;50.942;6.946;2023-08-31T06:28:41;15.60;99.90
17597;DHT22;8917;50.942;6.946;2023-08-31T06:31:08;15.80;99.90
17597;DHT22;8917;50.942;6.946;2023-08-31T06:33:37;15.70;99.90
17597;DHT22;8917;50.942;6.946;2023-08-31T06:36:04;15.70;99.90
17597;DHT22;8917;50.942;6.946;2023-08-31T06:38:31;15.80;99.90
17597;DHT22;8917;50.942;6.946;2023-08-31T06:40:58;15.70;99.90
17597;DHT22;8917;50.942;6.946;2023-08-31T06:43:25;15.70;99.90
17597;DHT22;8917;50.942;6.946;2023-08-31T06:45:53;15.80;99.90
17597;DHT22;8917;50.942;6.946;2023-08-31T06:48:20;15.80;99.90
17597;DHT22;8917;50.942;6.946;2023-08-31T06:50:48;15.90;99.90
17597;DHT22;8917;50.942;6.946;2023-08-31T06:53:15;16.00;99.90
17597;DHT22;8917;50.942;6.946;2023-08-31T06:55:42;16.00;99.90
17597;DHT22;8917;50.942;6.946;2023-08-31T06:58:09;16.00;99.90
17597;DHT22;8917;50.942;6.946;2023-08-31T07:00:36;16.10;99.90
17597;DHT22;8917;50.942;6.946;2023-08-31T07:03:04;16.00;99.90
17597;DHT22;8917;50.942;6.946;2023-08-31T07:05:33;16.10;99.90
17597;DHT22;8917;50.942;6.946;2023-08-31T07:08:03;16.20;99.90
17597;DHT22;8917;50.942;6.946;2023-08-31T07:10:30;16.30;99.90
17597;DHT22;8917;50.942;6.946;2023-08-31T07:12:57;16.20;99.90
17597;DHT22;8917;50.942;6.946;2023-08-31T07:15:27;16.30;99.90
17597;DHT22;8917;50.942;6.946;2023-08-31T07:17:53;16.40;99.90
17597;DHT22;8917;50.942;6.946;2023-08-31T07:20:21;16.40;99.90
17597;DHT22;8917;50.942;6.946;2023-08-31T07:22:48;16.40;99.90
17597;DHT22;8917;50.942;6.946;2023-08-31T07:25:18;16.30;99.90
17597;DHT22;8917;50.942;6.946;2023-08-31T07:27:45;16.40;99.90
17597;DHT22;8917;50.942;6.946;2023-08-31T07:30:12;16.50;99.90
17597;DHT22;8917;50.942;6.946;2023-08-31T07:32:39;16.60;99.90
17597;DHT22;8917;50.942;6.946;2023-08-31T07:35:07;16.60;99.90
17597;DHT22;8917;50.942;6.946;2023-08-31T07:37:34;16.60;99.90
17597;DHT22;8917;50.942;6.946;2023-08-31T07:40:03;16.60;99.90
17597;DHT22;8917;50.942;6.946;2023-08-31T07:42:35;16.60;99.90
17597;DHT22;8917;50.942;6.946;2023-08-31T07:45:02;16.70;99.90
17597;DHT22;8917;50.942;6.946;2023-08-31T07:47:31;16.90;99.90
17597;DHT22;8917;50.942;6.946;2023-08-31T07:49:58;17.10;99.90
17597;DHT22;8917;50.942;6.946;2023-08-31T07:52:25;17.10;99.90
17597;DHT22;8917;50.942;6.946;2023-08-31T07:54:52;17.10;99.90
17597;DHT22;8917;50.942;6.946;2023-08-31T07:57:19;17.40;99.90
17597;DHT22;8917;50.942;6.946;2023-08-31T07:59:49;17.30;99.90
17597;DHT22;8917;50.942;6.946;2023-08-31T08:02:16;17.20;99.90
17597;DHT22;8917;50.942;6.946;2023-08-31T08:04:43;17.20;99.90
17597;DHT22;8917;50.942;6.946;2023-08-31T08:07:11;17.30;99.90
17597;DHT22;8917;50.942;6.946;2023-08-31T08:09:38;17.30;99.90
17597;DHT22;8917;50.942;6.946;2023-08-31T08:12:06;17.30;99.90
17597;DHT22;8917;50.942;6.946;2023-08-31T08:14:33;17.40;99.90
17597;DHT22;8917;50.942;6.946;2023-08-31T08:17:01;17.40;99.90
17597;DHT22;8917;50.942;6.946;2023-08-31T08:19:28;17.40;99.90
17597;DHT22;8917;50.942;6.946;2023-08-31T08:21:55;17.20;99.90
17597;DHT22;8917;50.942;6.946;2023-08-31T08:24:22;17.40;99.90
17597;DHT22;8917;50.942;6.946;2023-08-31T08:26:49;17.40;99.90
17597;DHT22;8917;50.942;6.946;2023-08-31T08:29:16;17.40;99.90
17597;DHT22;8917;50.942;6.946;2023-08-31T08:31:43;17.50;99.90
17597;DHT22;8917;50.942;6.946;2023-08-31T08:34:11;17.60;99.90
17597;DHT22;8917;50.942;6.946;2023-08-31T08:36:38;17.60;99.90
17597;DHT22;8917;50.942;6.946;2023-08-31T08:39:05;17.70;99.90
17597;DHT22;8917;50.942;6.946;2023-08-31T08:41:33;17.90;99.90
17597;DHT22;8917;50.942;6.946;2023-08-31T08:44:02;18.10;99.90
17597;DHT22;8917;50.942;6.946;2023-08-31T08:46:31;18.30;99.90
17597;DHT22;8917;50.942;6.946;2023-08-31T08:48:58;18.50;99.90
17597;DHT22;8917;50.942;6.946;2023-08-31T08:51:27;18.60;99.90
17597;DHT22;8917;50.942;6.946;2023-08-31T08:53:56;18.70;99.90
17597;DHT22;8917;50.942;6.946;2023-08-31T08:56:25;18.80;99.90
17597;DHT22;8917;50.942;6.946;2023-08-31T08:58:53;18.90;99.90
17597;DHT22;8917;50.942;6.946;2023-08-31T09:01:21;18.80;99.90
17597;DHT22;8917;50.942;6.946;2023-08-31T09:03:49;18.60;99.90
17597;DHT22;8917;50.942;6.946;2023-08-31T09:06:16;18.30;99.90
17597;DHT22;8917;50.942;6.946;2023-08-31T09:08:44;18.10;99.90
17597;DHT22;8917;50.942;6.946;2023-08-31T09:11:22;18.10;99.90
17597;DHT22;8917;50.942;6.946;2023-08-31T09:13:50;18.10;99.90
17597;DHT22;8917;50.942;6.946;2023-08-31T09:16:24;18.10;99.90
17597;DHT22;8917;50.942;6.946;2023-08-31T09:18:52;18.20;99.90
17597;DHT22;8917;50.942;6.946;2023-08-31T09:21:19;18.40;99.90
17597;DHT22;8917;50.942;6.946;2023-08-31T09:23:55;18.60;99.90
17597;DHT22;8917;50.942;6.946;2023-08-31T09:26:23;18.70;99.90
17597;DHT22;8917;50.942;6.946;2023-08-31T09:28:50;18.80;99.90
17597;DHT22;8917;50.942;6.946;2023-08-31T09:31:18;18.90;99.90
17597;DHT22;8917;50.942;6.946;2023-08-31T09:33:50;19.00;99.70
17597;DHT22;8917;50.942;6.946;2023-08-31T09:36:17;19.00;99.40
17597;DHT22;8917;50.942;6.946;2023-08-31T09:38:45;18.90;99.30
17597;DHT22;8917;50.942;6.946;2023-08-31T09:41:14;19.00;99.40
17597;DHT22;8917;50.942;6.946;2023-08-31T09:43:42;19.00;99.40
17597;DHT22;8917;50.942;6.946;2023-08-31T09:46:09;19.00;99.50
17597;DHT22;8917;50.942;6.946;2023-08-31T09:48:37;19.00;99.60
17597;DHT22;8917;50.942;6.946;2023-08-31T09:51:07;19.20;99.40
17597;DHT22;8917;50.942;6.946;2023-08-31T09:53:36;19.40;98.90
17597;DHT22;8917;50.942;6.946;2023-08-31T09:56:05;19.50;98.40
17597;DHT22;8917;50.942;6.946;2023-08-31T09:58:33;19.40;98.70
17597;DHT22;8917;50.942;6.946;2023-08-31T10:01:01;19.30;97.90
17597;DHT22;8917;50.942;6.946;2023-08-31T10:03:28;19.20;97.60
17597;DHT22;8917;50.942;6.946;2023-08-31T10:05:55;19.20;97.70
17597;DHT22;8917;50.942;6.946;2023-08-31T10:08:23;19.30;97.80
17597;DHT22;8917;50.942;6.946;2023-08-31T10:10:52;19.60;97.50
17597;DHT22;8917;50.942;6.946;2023-08-31T10:13:21;19.50;96.70
17597;DHT22;8917;50.942;6.946;2023-08-31T10:15:49;19.50;95.80
17597;DHT22;8917;50.942;6.946;2023-08-31T10:18:17;19.60;96.20
17597;DHT22;8917;50.942;6.946;2023-08-31T10:20:44;19.60;96.30
17597;DHT22;8917;50.942;6.946;2023-08-31T10:23:12;19.80;96.40
17597;DHT22;8917;50.942;6.946;2023-08-31T10:26:02;19.90;96.50
17597;DHT22;8917;50.942;6.946;2023-08-31T10:28:39;19.90;96.60
17597;DHT22;8917;50.942;6.946;2023-08-31T10:31:08;19.90;96.80
17597;DHT22;8917;50.942;6.946;2023-08-31T10:33:39;19.80;97.00
17597;DHT22;8917;50.942;6.946;2023-08-31T10:36:11;19.80;95.70
17597;DHT22;8917;50.942;6.946;2023-08-31T10:38:38;19.60;95.80
17597;DHT22;8917;50.942;6.946;2023-08-31T10:41:19;19.60;95.30
17597;DHT22;8917;50.942;6.946;2023-08-31T10:43:48;19.70;95.50
17597;DHT22;8917;50.942;6.946;2023-08-31T10:46:26;19.80;95.40
17597;DHT22;8917;50.942;6.946;2023-08-31T10:48:57;20.00;95.20
17597;DHT22;8917;50.942;6.946;2023-08-31T10:51:26;20.10;94.40
17597;DHT22;8917;50.942;6.946;2023-08-31T10:54:07;20.20;94.40
17597;DHT22;8917;50.942;6.946;2023-08-31T10:56:52;20.10;95.10
17597;DHT22;8917;50.942;6.946;2023-08-31T10:59:20;20.10;95.40
17597;DHT22;8917;50.942;6.946;2023-08-31T11:01:54;20.10;95.40
17597;DHT22;8917;50.942;6.946;2023-08-31T11:04:22;20.10;95.70
17597;DHT22;8917;50.942;6.946;2023-08-31T11:06:49;20.10;96.20
17597;DHT22;8917;50.942;6.946;2023-08-31T11:09:20;20.20;96.00
17597;DHT22;8917;50.942;6.946;2023-08-31T11:11:47;20.30;95.40
17597;DHT22;8917;50.942;6.946;2023-08-31T11:14:14;20.20;95.40
17597;DHT22;8917;50.942;6.946;2023-08-31T11:16:43;20.20;95.30
17597;DHT22;8917;50.942;6.946;2023-08-31T11:19:12;20.30;95.90
17597;DHT22;8917;50.942;6.946;2023-08-31T11:21:39;20.60;95.50
17597;DHT22;8917;50.942;6.946;2023-08-31T11:24:09;20.60;95.50
17597;DHT22;8917;50.942;6.946;2023-08-31T11:26:36;20.50;95.30
17597;DHT22;8917;50.942;6.946;2023-08-31T11:29:06;20.40;95.40
17597;DHT22;8917;50.942;6.946;2023-08-31T11:31:37;20.20;95.20
17597;DHT22;8917;50.942;6.946;2023-08-31T11:34:06;20.30;95.50
17597;DHT22;8917;50.942;6.946;2023-08-31T11:36:34;20.20;95.10
17597;DHT22;8917;50.942;6.946;2023-08-31T11:39:03;20.30;95.40
17597;DHT22;8917;50.942;6.946;2023-08-31T11:41:31;20.10;96.60
17597;DHT22;8917;50.942;6.946;2023-08-31T11:44:01;19.90;97.80
17597;DHT22;8917;50.942;6.946;2023-08-31T11:46:28;19.90;98.30
17597;DHT22;8917;50.942;6.946;2023-08-31T11:48:55;19.80;99.00
17597;DHT22;8917;50.942;6.946;2023-08-31T11:51:22;19.70;98.70
17597;DHT22;8917;50.942;6.946;2023-08-31T11:53:51;19.60;99.00
17597;DHT22;8917;50.942;6.946;2023-08-31T11:56:18;19.80;98.80
17597;DHT22;8917;50.942;6.946;2023-08-31T11:58:45;19.60;98.00
17597;DHT22;8917;50.942;6.946;2023-08-31T12:01:18;19.40;98.10
17597;DHT22;8917;50.942;6.946;2023-08-31T12:03:46;19.70;97.20
17597;DHT22;8917;50.942;6.946;2023-08-31T12:06:15;19.80;96.40
17597;DHT22;8917;50.942;6.946;2023-08-31T12:08:43;20.00;96.10
17597;DHT22;8917;50.942;6.946;2023-08-31T12:11:12;19.90;95.30
17597;DHT22;8917;50.942;6.946;2023-08-31T12:13:40;19.90;95.40
17597;DHT22;8917;50.942;6.946;2023-08-31T12:16:12;20.00;95.70
17597;DHT22;8917;50.942;6.946;2023-08-31T12:18:39;20.10;96.10
17597;DHT22;8917;50.942;6.946;2023-08-31T12:21:06;20.20;95.90
17597;DHT22;8917;50.942;6.946;2023-08-31T12:23:33;20.40;96.00
17597;DHT22;8917;50.942;6.946;2023-08-31T12:26:00;20.50;95.80
17597;DHT22;8917;50.942;6.946;2023-08-31T12:28:29;20.40;96.00
17597;DHT22;8917;50.942;6.946;2023-08-31T12:30:56;20.40;96.60
17597;DHT22;8917;50.942;6.946;2023-08-31T12:33:23;20.40;97.20
17597;DHT22;8917;50.942;6.946;2023-08-31T12:35:50;20.30;97.90
17597;DHT22;8917;50.942;6.946;2023-08-31T12:38:17;20.20;98.50
17597;DHT22;8917;50.942;6.946;2023-08-31T12:40:45;20.10;98.40
17597;DHT22;8917;50.942;6.946;2023-08-31T12:43:12;20.00;98.40
17597;DHT22;8917;50.942;6.946;2023-08-31T12:45:41;19.90;96.90
17597;DHT22;8917;50.942;6.946;2023-08-31T12:48:07;19.90;96.90
17597;DHT22;8917;50.942;6.946;2023-08-31T12:50:34;19.90;97.20
17597;DHT22;8917;50.942;6.946;2023-08-31T12:53:01;19.90;96.80
17597;DHT22;8917;50.942;6.946;2023-08-31T12:55:28;19.80;96.50
17597;DHT22;8917;50.942;6.946;2023-08-31T12:57:56;19.80;96.40
17597;DHT22;8917;50.942;6.946;2023-08-31T13:00:24;20.00;96.60
17597;DHT22;8917;50.942;6.946;2023-08-31T13:02:52;20.30;95.80
17597;DHT22;8917;50.942;6.946;2023-08-31T13:05:20;20.80;95.30
17597;DHT22;8917;50.942;6.946;2023-08-31T13:07:47;21.00;95.20
17597;DHT22;8917;50.942;6.946;2023-08-31T13:10:14;21.30;94.40
17597;DHT22;8917;50.942;6.946;2023-08-31T13:12:42;21.30;94.30
17597;DHT22;8917;50.942;6.946;2023-08-31T13:15:09;21.20;94.30
17597;DHT22;8917;50.942;6.946;2023-08-31T13:17:36;21.30;94.30
17597;DHT22;8917;50.942;6.946;2023-08-31T13:20:05;21.50;94.50
17597;DHT22;8917;50.942;6.946;2023-08-31T13:22:33;21.90;94.20
17597;DHT22;8917;50.942;6.946;2023-08-31T13:25:00;22.00;94.30
17597;DHT22;8917;50.942;6.946;2023-08-31T13:27:27;21.90;94.60
17597;DHT22;8917;50.942;6.946;2023-08-31T13:29:55;21.90;95.00
17597;DHT22;8917;50.942;6.946;2023-08-31T13:32:22;22.00;94.60
17597;DHT22;8917;50.942;6.946;2023-08-31T13:34:49;22.00;94.70
17597;DHT22;8917;50.942;6.946;2023-08-31T13:37:17;21.90;94.60
17597;DHT22;8917;50.942;6.946;2023-08-31T13:39:44;21.80;95.00
17597;DHT22;8917;50.942;6.946;2023-08-31T13:42:11;22.00;94.60
17597;DHT22;8917;50.942;6.946;2023-08-31T13:44:38;22.10;94.70
17597;DHT22;8917;50.942;6.946;2023-08-31T13:47:05;22.00;95.10
17597;DHT22;8917;50.942;6.946;2023-08-31T13:49:32;21.60;95.70
17597;DHT22;8917;50.942;6.946;2023-08-31T13:52:00;21.40;95.60
17597;DHT22;8917;50.942;6.946;2023-08-31T13:54:28;21.60;95.10
17597;DHT22;8917;50.942;6.946;2023-08-31T13:56:55;21.60;94.70
17597;DHT22;8917;50.942;6.946;2023-08-31T13:59:23;22.60;94.20
17597;DHT22;8917;50.942;6.946;2023-08-31T14:01:51;23.70;92.40
17597;DHT22;8917;50.942;6.946;2023-08-31T14:06:58;25.00;90.80
17597;DHT22;8917;50.942;6.946;2023-08-31T14:09:27;25.80;86.50
17597;DHT22;8917;50.942;6.946;2023-08-31T14:11:54;25.30;88.90
17597;DHT22;8917;50.942;6.946;2023-08-31T14:14:22;25.00;90.00
17597;DHT22;8917;50.942;6.946;2023-08-31T14:16:50;26.10;89.20
17597;DHT22;8917;50.942;6.946;2023-08-31T14:19:17;27.30;87.30
17597;DHT22;8917;50.942;6.946;2023-08-31T14:21:45;28.40;85.00
17597;DHT22;8917;50.942;6.946;2023-08-31T14:24:15;29.10;81.80
17597;DHT22;8917;50.942;6.946;2023-08-31T14:26:43;29.20;80.40
17597;DHT22;8917;50.942;6.946;2023-08-31T14:29:10;29.90;78.20
17597;DHT22;8917;50.942;6.946;2023-08-31T14:31:39;30.40;76.30
17597;DHT22;8917;50.942;6.946;2023-08-31T14:34:06;31.10;75.10
17597;DHT22;8917;50.942;6.946;2023-08-31T14:36:33;29.50;76.20
17597;DHT22;8917;50.942;6.946;2023-08-31T14:39:00;27.60;78.50
17597;DHT22;8917;50.942;6.946;2023-08-31T14:41:30;25.80;80.50
17597;DHT22;8917;50.942;6.946;2023-08-31T14:43:56;24.60;83.70
17597;DHT22;8917;50.942;6.946;2023-08-31T14:46:23;24.30;85.10
17597;DHT22;8917;50.942;6.946;2023-08-31T14:48:50;24.10;85.10
17597;DHT22;8917;50.942;6.946;2023-08-31T14:51:17;23.70;86.50
17597;DHT22;8917;50.942;6.946;2023-08-31T14:53:44;23.90;88.00
17597;DHT22;8917;50.942;6.946;2023-08-31T14:56:11;24.60;86.60
17597;DHT22;8917;50.942;6.946;2023-08-31T14:58:39;24.80;85.30
17597;DHT22;8917;50.942;6.946;2023-08-31T15:01:06;24.00;86.30
17597;DHT22;8917;50.942;6.946;2023-08-31T15:03:33;23.70;87.10
17597;DHT22;8917;50.942;6.946;2023-08-31T15:06:00;23.70;87.40
17597;DHT22;8917;50.942;6.946;2023-08-31T15:08:35;23.50;87.50
17597;DHT22;8917;50.942;6.946;2023-08-31T15:11:02;22.90;87.30
17597;DHT22;8917;50.942;6.946;2023-08-31T15:13:30;22.60;87.80
17597;DHT22;8917;50.942;6.946;2023-08-31T15:15:58;22.40;88.20
17597;DHT22;8917;50.942;6.946;2023-08-31T15:18:26;22.50;88.50
17597;DHT22;8917;50.942;6.946;2023-08-31T15:20:53;22.50;88.20
17597;DHT22;8917;50.942;6.946;2023-08-31T15:23:20;22.60;88.70
17597;DHT22;8917;50.942;6.946;2023-08-31T15:25:47;22.50;88.90
17597;DHT22;8917;50.942;6.946;2023-08-31T15:28:14;22.60;89.50
17597;DHT22;8917;50.942;6.946;2023-08-31T15:30:41;22.50;90.00
17597;DHT22;8917;50.942;6.946;2023-08-31T15:33:09;22.30;90.00
17597;DHT22;8917;50.942;6.946;2023-08-31T15:35:36;22.20;90.20
17597;DHT22;8917;50.942;6.946;2023-08-31T15:38:04;22.20;90.20
17597;DHT22;8917;50.942;6.946;2023-08-31T15:40:31;21.90;90.40
17597;DHT22;8917;50.942;6.946;2023-08-31T15:42:57;21.90;90.50
17597;DHT22;8917;50.942;6.946;2023-08-31T15:45:24;22.00;90.50
17597;DHT22;8917;50.942;6.946;2023-08-31T15:47:51;22.00;90.50
17597;DHT22;8917;50.942;6.946;2023-08-31T15:50:20;21.90;90.70
17597;DHT22;8917;50.942;6.946;2023-08-31T15:52:47;21.70;90.70